createdAt,value
2018-05-15T00:00:14.402Z,7.55
2018-05-15T00:00:48.254Z,8.82
2018-05-15T00:01:22.139Z,8.57
2018-05-15T00:01:56.046Z,8.60
2018-05-15T00:02:30.037Z,8.90
2018-05-15T00:03:03.925Z,8.98
2018-05-15T00:03:37.798Z,8.55
2018-05-15T00:04:11.683Z,8.35
2018-05-15T00:04:45.576Z,6.80
2018-05-15T00:05:19.476Z,7.45
2018-05-15T00:05:53.378Z,7.68
2018-05-15T00:06:27.273Z,7.85
2018-05-15T00:07:01.257Z,7.40
2018-05-15T00:07:35.152Z,6.40
2018-05-15T00:08:09.080Z,8.20
2018-05-15T00:08:42.991Z,8.50
2018-05-15T00:09:16.876Z,8.75
2018-05-15T00:09:50.769Z,7.60
2018-05-15T00:10:24.638Z,7.80
2018-05-15T00:10:58.511Z,8.02
2018-05-15T00:11:32.400Z,7.70
2018-05-15T00:12:06.467Z,7.55
2018-05-15T00:12:40.384Z,7.37
2018-05-15T00:13:14.244Z,7.28
2018-05-15T00:13:48.110Z,7.62
2018-05-15T00:14:22.049Z,7.70
2018-05-15T00:14:55.946Z,7.95
2018-05-15T00:15:29.813Z,8.50
2018-05-15T00:16:03.721Z,7.87
2018-05-15T00:16:37.613Z,8.75
2018-05-15T00:17:11.500Z,9.30
2018-05-15T00:17:45.424Z,8.88
2018-05-15T00:18:19.308Z,9.38
2018-05-15T00:18:53.213Z,8.88
2018-05-15T00:19:27.102Z,9.45
2018-05-15T00:20:00.975Z,9.93
2018-05-15T00:20:34.871Z,9.85
2018-05-15T00:21:08.761Z,10.30
2018-05-15T00:21:42.660Z,10.00
2018-05-15T00:22:16.553Z,9.70
2018-05-15T00:22:50.445Z,8.85
2018-05-15T00:23:24.310Z,7.90
2018-05-15T00:23:58.238Z,8.80
2018-05-15T00:24:32.299Z,8.55
2018-05-15T00:25:06.185Z,8.60
2018-05-15T00:25:40.084Z,7.82
2018-05-15T00:26:14.039Z,7.10
2018-05-15T00:26:47.900Z,9.05
2018-05-15T00:27:21.812Z,8.52
2018-05-15T00:27:55.700Z,7.43
2018-05-15T00:28:29.599Z,8.27
2018-05-15T00:29:03.498Z,8.80
2018-05-15T00:29:37.406Z,7.80
2018-05-15T00:30:11.274Z,7.68
2018-05-15T00:30:45.211Z,8.48
2018-05-15T00:31:19.148Z,8.80
2018-05-15T00:31:53.104Z,9.48
2018-05-15T00:32:26.928Z,9.13
2018-05-15T00:33:00.819Z,9.10
2018-05-15T00:33:34.748Z,9.98
2018-05-15T00:34:08.645Z,11.15
2018-05-15T00:34:42.574Z,11.32
2018-05-15T00:35:16.469Z,11.00
2018-05-15T00:35:50.388Z,10.93
2018-05-15T00:36:24.298Z,11.38
2018-05-15T00:36:58.191Z,11.60
2018-05-15T00:37:32.115Z,12.43
2018-05-15T00:38:06.053Z,11.57
2018-05-15T00:38:39.929Z,11.25
2018-05-15T00:39:13.801Z,12.27
2018-05-15T00:39:47.688Z,11.43
2018-05-15T00:40:21.619Z,11.60
2018-05-15T00:40:55.532Z,11.75
2018-05-15T00:41:29.415Z,11.45
2018-05-15T00:42:03.291Z,11.38
2018-05-15T00:42:37.195Z,11.77
2018-05-15T00:43:11.102Z,12.20
2018-05-15T00:43:44.989Z,12.10
2018-05-15T00:44:19.073Z,11.85
2018-05-15T00:44:52.881Z,12.10
2018-05-15T00:45:26.946Z,11.15
2018-05-15T00:46:00.843Z,11.02
2018-05-15T00:46:34.740Z,10.80
2018-05-15T00:47:08.640Z,9.20
2018-05-15T00:47:42.519Z,9.20
2018-05-15T00:48:16.412Z,8.13
2018-05-15T00:48:50.307Z,7.95
2018-05-15T00:49:24.276Z,7.93
2018-05-15T00:49:58.195Z,8.45
2018-05-15T00:50:32.059Z,7.80
2018-05-15T00:51:06.034Z,9.40
2018-05-15T00:51:39.896Z,8.98
2018-05-15T00:52:13.780Z,8.45
2018-05-15T00:52:47.630Z,7.78
2018-05-15T00:53:21.528Z,9.18
2018-05-15T00:53:55.398Z,7.25
2018-05-15T00:54:29.271Z,7.90
2018-05-15T00:55:09.037Z,8.10
2018-05-15T00:55:43.841Z,7.82
2018-05-15T00:56:17.733Z,8.13
2018-05-15T00:56:51.604Z,8.23
2018-05-15T00:57:25.492Z,8.48
2018-05-15T00:57:59.404Z,8.48
2018-05-15T00:58:33.280Z,8.48
2018-05-15T00:59:07.174Z,8.65
2018-05-15T00:59:41.066Z,8.43
2018-05-15T01:00:14.926Z,7.90
2018-05-15T01:00:48.812Z,8.07
2018-05-15T01:01:22.743Z,7.60
2018-05-15T01:01:56.656Z,7.55
2018-05-15T01:02:30.605Z,8.10
2018-05-15T01:03:04.514Z,7.50
2018-05-15T01:03:38.427Z,7.50
2018-05-15T01:04:12.296Z,8.45
2018-05-15T01:04:46.213Z,7.80
2018-05-15T01:05:20.091Z,8.05
2018-05-15T01:05:53.989Z,7.80
2018-05-15T01:06:27.882Z,8.35
2018-05-15T01:07:01.822Z,8.52
2018-05-15T01:07:35.714Z,7.68
2018-05-15T01:08:09.580Z,8.60
2018-05-15T01:08:43.499Z,9.38
2018-05-15T01:09:17.408Z,9.77
2018-05-15T01:09:51.292Z,9.07
2018-05-15T01:10:25.164Z,9.32
2018-05-15T01:10:59.031Z,9.27
2018-05-15T01:11:32.919Z,8.85
2018-05-15T01:12:06.920Z,8.60
2018-05-15T01:12:40.788Z,9.38
2018-05-15T01:13:14.749Z,8.82
2018-05-15T01:13:48.646Z,10.00
2018-05-15T01:14:22.523Z,9.55
2018-05-15T01:14:56.399Z,9.40
2018-05-15T01:15:30.299Z,8.95
2018-05-15T01:16:04.180Z,8.48
2018-05-15T01:16:38.071Z,8.10
2018-05-15T01:17:11.961Z,8.60
2018-05-15T01:17:45.855Z,8.63
2018-05-15T01:18:19.727Z,8.10
2018-05-15T01:18:53.627Z,8.13
2018-05-15T01:19:27.489Z,8.30
2018-05-15T01:20:01.379Z,8.40
2018-05-15T01:20:35.278Z,8.27
2018-05-15T01:21:09.171Z,9.10
2018-05-15T01:21:43.069Z,8.63
2018-05-15T01:22:16.965Z,8.05
2018-05-15T01:22:50.811Z,8.45
2018-05-15T01:23:24.684Z,8.00
2018-05-15T01:23:58.576Z,8.20
2018-05-15T01:24:32.500Z,7.53
2018-05-15T01:25:06.467Z,8.82
2018-05-15T01:25:40.355Z,9.75
2018-05-15T01:26:14.231Z,9.63
2018-05-15T01:26:48.124Z,9.20
2018-05-15T01:27:22.020Z,8.50
2018-05-15T01:27:55.892Z,9.20
2018-05-15T01:28:29.820Z,9.45
2018-05-15T01:29:03.736Z,9.38
2018-05-15T01:29:37.626Z,8.07
2018-05-15T01:30:11.489Z,8.73
2018-05-15T01:30:45.382Z,8.30
2018-05-15T01:31:19.277Z,8.82
2018-05-15T01:31:53.136Z,8.32
2018-05-15T01:32:27.107Z,8.20
2018-05-15T01:33:01.046Z,8.63
2018-05-15T01:33:34.915Z,7.95
2018-05-15T01:34:08.828Z,8.20
2018-05-15T01:34:42.747Z,7.85
2018-05-15T01:35:16.642Z,8.50
2018-05-15T01:35:50.507Z,8.18
2018-05-15T01:36:24.392Z,8.40
2018-05-15T01:36:58.265Z,8.20
2018-05-15T01:37:32.135Z,8.43
2018-05-15T01:38:06.076Z,8.45
2018-05-15T01:38:40.002Z,8.10
2018-05-15T01:39:13.905Z,8.70
2018-05-15T01:39:47.764Z,7.85
2018-05-15T01:40:21.631Z,8.30
2018-05-15T01:40:55.495Z,7.57
2018-05-15T01:41:29.375Z,8.23
2018-05-15T01:42:03.280Z,7.80
2018-05-15T01:42:37.169Z,8.20
2018-05-15T01:43:11.038Z,7.95
2018-05-15T01:43:44.892Z,8.30
2018-05-15T01:44:18.783Z,8.65
2018-05-15T01:44:52.639Z,8.68
2018-05-15T01:45:26.546Z,7.78
2018-05-15T01:46:00.440Z,9.18
2018-05-15T01:46:34.332Z,10.00
2018-05-15T01:47:08.224Z,9.13
2018-05-15T01:47:42.120Z,8.60
2018-05-15T01:48:16.013Z,8.32
2018-05-15T01:48:49.895Z,9.90
2018-05-15T01:49:23.793Z,8.77
2018-05-15T01:49:57.691Z,8.60
2018-05-15T01:50:31.562Z,8.48
2018-05-15T01:51:05.443Z,8.85
2018-05-15T01:51:39.344Z,8.80
2018-05-15T01:52:13.201Z,8.50
2018-05-15T01:52:47.083Z,8.90
2018-05-15T01:53:20.993Z,7.97
2018-05-15T01:53:54.859Z,8.38
2018-05-15T01:54:28.779Z,8.75
2018-05-15T01:55:02.669Z,8.48
2018-05-15T01:55:36.547Z,8.20
2018-05-15T01:56:10.420Z,9.45
2018-05-15T01:56:44.316Z,8.68
2018-05-15T01:57:18.210Z,8.77
2018-05-15T01:57:52.076Z,9.00
2018-05-15T01:58:25.973Z,8.90
2018-05-15T01:58:59.864Z,8.38
2018-05-15T01:59:33.764Z,8.20
2018-05-15T02:00:07.642Z,9.40
2018-05-15T02:00:41.531Z,8.95
2018-05-15T02:01:15.460Z,8.13
2018-05-15T02:01:49.349Z,8.70
2018-05-15T02:02:23.224Z,8.50
2018-05-15T02:02:57.143Z,9.32
2018-05-15T02:03:31.014Z,8.85
2018-05-15T02:04:04.911Z,9.95
2018-05-15T02:04:38.856Z,8.85
2018-05-15T02:05:12.949Z,9.20
2018-05-15T02:05:46.855Z,9.55
2018-05-15T02:06:20.750Z,8.80
2018-05-15T02:06:54.627Z,9.65
2018-05-15T02:07:28.552Z,9.15
2018-05-15T02:08:02.462Z,8.50
2018-05-15T02:08:36.331Z,8.85
2018-05-15T02:09:10.227Z,9.05
2018-05-15T02:09:44.128Z,8.10
2018-05-15T02:10:18.002Z,8.52
2018-05-15T02:10:51.898Z,9.27
2018-05-15T02:11:25.829Z,9.15
2018-05-15T02:11:59.700Z,9.32
2018-05-15T02:12:33.588Z,8.25
2018-05-15T02:13:07.486Z,8.80
2018-05-15T02:13:41.414Z,8.95
2018-05-15T02:14:15.304Z,9.75
2018-05-15T02:14:49.223Z,9.13
2018-05-15T02:15:23.120Z,9.75
2018-05-15T02:15:57.024Z,8.80
2018-05-15T02:16:30.904Z,9.35
2018-05-15T02:17:04.851Z,8.52
2018-05-15T02:17:38.733Z,9.38
2018-05-15T02:18:12.638Z,10.02
2018-05-15T02:18:46.531Z,9.75
2018-05-15T02:19:20.425Z,10.00
2018-05-15T02:19:54.314Z,9.57
2018-05-15T02:20:28.217Z,9.18
2018-05-15T02:21:02.140Z,9.45
2018-05-15T02:21:36.003Z,8.85
2018-05-15T02:22:10.020Z,8.90
2018-05-15T02:22:43.902Z,10.18
2018-05-15T02:23:17.790Z,8.85
2018-05-15T02:23:51.739Z,9.75
2018-05-15T02:24:25.614Z,10.27
2018-05-15T02:24:59.483Z,9.55
2018-05-15T02:25:33.359Z,9.25
2018-05-15T02:26:07.367Z,9.55
2018-05-15T02:26:41.242Z,10.50
2018-05-15T02:27:15.172Z,9.32
2018-05-15T02:27:49.054Z,11.07
2018-05-15T02:28:22.940Z,9.88
2018-05-15T02:28:56.870Z,9.88
2018-05-15T02:29:30.756Z,9.43
2018-05-15T02:30:04.636Z,9.88
2018-05-15T02:30:38.523Z,9.35
2018-05-15T02:31:12.420Z,9.43
2018-05-15T02:31:46.273Z,9.48
2018-05-15T02:32:20.154Z,10.32
2018-05-15T02:32:54.027Z,9.48
2018-05-15T02:33:27.934Z,9.23
2018-05-15T02:34:01.803Z,9.65
2018-05-15T02:34:35.700Z,9.40
2018-05-15T02:35:09.607Z,11.50
2018-05-15T02:35:43.485Z,9.57
2018-05-15T02:36:17.373Z,9.30
2018-05-15T02:36:51.291Z,8.57
2018-05-15T02:37:25.172Z,9.77
2018-05-15T02:37:59.089Z,9.05
2018-05-15T02:38:32.978Z,10.45
2018-05-15T02:39:06.929Z,8.60
2018-05-15T02:39:40.850Z,9.52
2018-05-15T02:40:14.787Z,8.93
2018-05-15T02:40:48.696Z,9.70
2018-05-15T02:41:22.581Z,10.10
2018-05-15T02:41:56.493Z,9.77
2018-05-15T02:42:30.395Z,9.75
2018-05-15T02:43:04.276Z,10.30
2018-05-15T02:43:38.185Z,10.77
2018-05-15T02:44:12.104Z,9.50
2018-05-15T02:44:45.991Z,9.23
2018-05-15T02:45:19.927Z,9.80
2018-05-15T02:45:53.843Z,9.45
2018-05-15T02:46:27.743Z,8.85
2018-05-15T02:47:01.636Z,11.25
2018-05-15T02:47:35.528Z,10.48
2018-05-15T02:48:09.457Z,10.60
2018-05-15T02:48:43.328Z,9.52
2018-05-15T02:49:17.193Z,9.98
2018-05-15T02:49:51.051Z,9.48
2018-05-15T02:50:24.964Z,9.18
2018-05-15T02:50:58.862Z,9.40
2018-05-15T02:51:32.766Z,8.88
2018-05-15T02:52:06.753Z,9.38
2018-05-15T02:52:40.628Z,9.70
2018-05-15T02:53:14.515Z,9.63
2018-05-15T02:53:48.520Z,9.30
2018-05-15T02:54:22.437Z,9.73
2018-05-15T02:54:56.320Z,9.10
2018-05-15T02:55:30.263Z,9.52
2018-05-15T02:56:04.139Z,8.80
2018-05-15T02:56:38.018Z,9.73
2018-05-15T02:57:11.890Z,10.45
2018-05-15T02:57:45.771Z,8.98
2018-05-15T02:58:19.660Z,10.05
2018-05-15T02:58:53.533Z,9.25
2018-05-15T02:59:27.420Z,11.43
2018-05-15T03:00:01.299Z,10.27
2018-05-15T03:00:35.218Z,9.52
2018-05-15T03:01:09.107Z,9.98
2018-05-15T03:01:42.985Z,9.85
2018-05-15T03:02:16.891Z,9.70
2018-05-15T03:02:50.780Z,9.18
2018-05-15T03:03:24.692Z,9.60
2018-05-15T03:03:58.580Z,9.13
2018-05-15T03:04:32.455Z,10.25
2018-05-15T03:05:06.400Z,10.45
2018-05-15T03:05:40.303Z,10.27
2018-05-15T03:06:14.171Z,9.07
2018-05-15T03:06:48.040Z,9.35
2018-05-15T03:07:21.932Z,9.50
2018-05-15T03:07:55.804Z,9.27
2018-05-15T03:08:29.691Z,9.90
2018-05-15T03:09:03.562Z,9.02
2018-05-15T03:09:37.429Z,9.63
2018-05-15T03:10:11.303Z,9.50
2018-05-15T03:10:45.243Z,8.80
2018-05-15T03:11:19.125Z,9.02
2018-05-15T03:11:53.031Z,9.45
2018-05-15T03:12:26.945Z,10.75
2018-05-15T03:13:00.839Z,8.88
2018-05-15T03:13:34.779Z,9.40
2018-05-15T03:14:08.705Z,9.45
2018-05-15T03:14:42.599Z,9.55
2018-05-15T03:15:16.504Z,9.57
2018-05-15T03:15:50.423Z,9.52
2018-05-15T03:16:24.336Z,9.20
2018-05-15T03:16:58.251Z,9.25
2018-05-15T03:17:32.132Z,8.73
2018-05-15T03:18:06.075Z,9.40
2018-05-15T03:18:39.995Z,9.90
2018-05-15T03:19:13.899Z,9.32
2018-05-15T03:19:47.782Z,9.85
2018-05-15T03:20:21.652Z,10.30
2018-05-15T03:20:55.564Z,9.25
2018-05-15T03:21:29.449Z,9.38
2018-05-15T03:22:03.346Z,9.73
2018-05-15T03:22:37.226Z,9.30
2018-05-15T03:23:11.128Z,9.27
2018-05-15T03:23:45.197Z,9.82
2018-05-15T03:24:19.071Z,8.82
2018-05-15T03:24:52.985Z,9.50
2018-05-15T03:25:26.884Z,9.50
2018-05-15T03:26:00.812Z,9.77
2018-05-15T03:26:40.537Z,8.48
2018-05-15T03:27:14.444Z,9.35
2018-05-15T03:27:48.332Z,9.63
2018-05-15T03:28:22.198Z,9.63
2018-05-15T03:28:56.091Z,9.23
2018-05-15T03:29:30.193Z,8.90
2018-05-15T03:30:04.105Z,9.80
2018-05-15T03:30:38.016Z,9.25
2018-05-15T03:31:11.890Z,9.52
2018-05-15T03:31:45.794Z,9.57
2018-05-15T03:32:19.684Z,9.27
2018-05-15T03:32:53.586Z,13.65
2018-05-15T03:33:27.679Z,9.80
2018-05-15T03:34:01.578Z,10.63
2018-05-15T03:34:35.473Z,10.30
2018-05-15T03:35:09.369Z,10.55
2018-05-15T03:35:47.053Z,11.50
2018-05-15T03:36:21.004Z,10.90
2018-05-15T03:36:54.908Z,9.70
2018-05-15T03:37:28.787Z,9.45
2018-05-15T03:38:02.703Z,9.93
2018-05-15T03:38:36.595Z,9.40
2018-05-15T03:39:10.472Z,10.05
2018-05-15T03:39:44.839Z,9.40
2018-05-15T03:40:19.028Z,10.68
2018-05-15T03:40:52.927Z,10.43
2018-05-15T03:41:26.880Z,10.25
2018-05-15T03:42:00.817Z,10.68
2018-05-15T03:42:35.378Z,10.07
2018-05-15T03:43:09.325Z,13.05
2018-05-15T03:43:43.358Z,11.90
2018-05-15T03:44:18.309Z,13.15
2018-05-15T03:44:52.231Z,20.08
2018-05-15T03:45:26.133Z,15.25
2018-05-15T03:46:00.090Z,13.27
2018-05-15T03:46:34.640Z,12.70
2018-05-15T03:47:09.546Z,10.50
2018-05-15T03:47:43.459Z,10.05
2018-05-15T03:48:17.367Z,9.27
2018-05-15T03:48:51.479Z,10.32
2018-05-15T03:49:25.412Z,9.75
2018-05-15T03:49:59.340Z,9.90
2018-05-15T03:50:33.229Z,9.85
2018-05-15T03:51:07.167Z,10.77
2018-05-15T03:51:41.693Z,10.32
2018-05-15T03:52:15.599Z,10.70
2018-05-15T03:52:49.512Z,9.40
2018-05-15T03:53:23.418Z,10.10
2018-05-15T03:53:57.336Z,9.35
2018-05-15T03:54:31.249Z,9.32
2018-05-15T03:55:05.212Z,9.38
2018-05-15T03:55:39.107Z,10.48
2018-05-15T03:56:12.996Z,10.02
2018-05-15T03:56:46.919Z,10.10
2018-05-15T03:57:20.804Z,11.07
2018-05-15T03:57:54.787Z,9.52
2018-05-15T03:58:28.797Z,10.75
2018-05-15T03:59:02.729Z,8.93
2018-05-15T03:59:37.350Z,9.32
2018-05-15T04:00:17.244Z,9.02
2018-05-15T04:00:57.105Z,9.40
2018-05-15T04:01:36.902Z,10.02
2018-05-15T04:02:16.857Z,10.05
2018-05-15T04:02:56.675Z,9.40
2018-05-15T04:03:37.068Z,9.80
2018-05-15T04:04:16.819Z,9.60
2018-05-15T04:04:56.635Z,11.55
2018-05-15T04:05:36.330Z,10.10
2018-05-15T04:06:16.126Z,10.73
2018-05-15T04:06:55.746Z,10.43
2018-05-15T04:07:35.447Z,11.00
2018-05-15T04:08:09.255Z,11.43
2018-05-15T04:08:43.918Z,11.07
2018-05-15T04:09:17.843Z,11.38
2018-05-15T04:09:54.332Z,10.52
2018-05-15T04:10:28.884Z,10.00
2018-05-15T04:11:03.350Z,11.40
2018-05-15T04:11:37.415Z,10.40
2018-05-15T04:12:12.549Z,9.90
2018-05-15T04:12:46.777Z,10.02
2018-05-15T04:13:20.666Z,10.27
2018-05-15T04:13:54.544Z,9.88
2018-05-15T04:14:28.427Z,10.63
2018-05-15T04:15:02.315Z,10.40
2018-05-15T04:15:37.141Z,11.40
2018-05-15T04:16:11.180Z,10.80
2018-05-15T04:16:45.883Z,9.98
2018-05-15T04:17:19.841Z,10.90
2018-05-15T04:17:53.821Z,11.40
2018-05-15T04:18:27.793Z,10.60
2018-05-15T04:19:01.739Z,9.80
2018-05-15T04:19:35.626Z,10.25
2018-05-15T04:20:10.441Z,10.50
2018-05-15T04:20:45.870Z,10.43
2018-05-15T04:21:19.751Z,10.45
2018-05-15T04:21:53.606Z,10.60
2018-05-15T04:22:27.519Z,9.90
2018-05-15T04:23:01.414Z,10.77
2018-05-15T04:23:35.291Z,10.02
2018-05-15T04:24:09.553Z,11.75
2018-05-15T04:24:45.397Z,10.85
2018-05-15T04:25:19.266Z,10.07
2018-05-15T04:25:53.499Z,10.75
2018-05-15T04:26:27.364Z,10.63
2018-05-15T04:27:01.278Z,9.45
2018-05-15T04:27:35.267Z,9.75
2018-05-15T04:28:09.704Z,10.40
2018-05-15T04:28:43.970Z,11.60
2018-05-15T04:29:17.913Z,11.12
2018-05-15T04:29:51.850Z,11.63
2018-05-15T04:30:25.719Z,11.15
2018-05-15T04:30:59.623Z,9.88
2018-05-15T04:31:33.521Z,10.50
2018-05-15T04:32:07.689Z,10.88
2018-05-15T04:32:42.123Z,11.43
2018-05-15T04:33:16.677Z,12.05
2018-05-15T04:33:50.541Z,12.35
2018-05-15T04:34:25.195Z,10.88
2018-05-15T04:34:59.188Z,11.80
2018-05-15T04:35:33.062Z,11.68
2018-05-15T04:36:07.445Z,10.88
2018-05-15T04:36:43.530Z,11.40
2018-05-15T04:37:17.541Z,11.60
2018-05-15T04:37:51.465Z,12.45
2018-05-15T04:38:25.364Z,10.82
2018-05-15T04:38:59.221Z,10.90
2018-05-15T04:39:33.139Z,12.50
2018-05-15T04:40:07.030Z,9.90
2018-05-15T04:40:40.936Z,11.98
2018-05-15T04:41:14.900Z,11.45
2018-05-15T04:41:48.835Z,11.48
2018-05-15T04:42:22.732Z,12.05
2018-05-15T04:42:56.609Z,9.90
2018-05-15T04:43:30.546Z,10.15
2018-05-15T04:44:04.459Z,9.70
2018-05-15T04:44:38.342Z,10.70
2018-05-15T04:45:12.267Z,10.93
2018-05-15T04:45:46.169Z,10.07
2018-05-15T04:46:20.064Z,9.20
2018-05-15T04:46:54.012Z,10.10
2018-05-15T04:47:27.883Z,11.12
2018-05-15T04:48:01.750Z,9.50
2018-05-15T04:48:35.687Z,11.90
2018-05-15T04:49:09.632Z,10.27
2018-05-15T04:49:43.560Z,9.18
2018-05-15T04:50:17.542Z,10.90
2018-05-15T04:50:51.444Z,10.32
2018-05-15T04:51:25.342Z,10.73
2018-05-15T04:51:59.227Z,10.43
2018-05-15T04:52:33.121Z,10.60
2018-05-15T04:53:07.045Z,12.82
2018-05-15T04:53:40.940Z,11.35
2018-05-15T04:54:14.819Z,11.02
2018-05-15T04:54:48.722Z,10.38
2018-05-15T04:55:22.584Z,10.93
2018-05-15T04:55:56.451Z,10.55
2018-05-15T04:56:31.266Z,11.00
2018-05-15T04:57:05.133Z,9.70
2018-05-15T04:57:39.106Z,10.13
2018-05-15T04:58:12.993Z,11.02
2018-05-15T04:58:46.862Z,11.07
2018-05-15T04:59:20.751Z,10.50
2018-05-15T04:59:54.636Z,10.90
2018-05-15T05:00:28.547Z,9.98
2018-05-15T05:01:02.423Z,10.32
2018-05-15T05:01:36.282Z,9.80
2018-05-15T05:02:10.238Z,11.55
2018-05-15T05:02:44.107Z,10.82
2018-05-15T05:03:18.005Z,9.93
2018-05-15T05:03:51.977Z,11.00
2018-05-15T05:04:25.967Z,10.25
2018-05-15T05:04:59.917Z,10.40
2018-05-15T05:05:33.944Z,9.20
2018-05-15T05:06:07.931Z,10.07
2018-05-15T05:06:41.928Z,9.80
2018-05-15T05:07:15.875Z,10.40
2018-05-15T05:07:49.762Z,10.95
2018-05-15T05:08:23.637Z,10.73
2018-05-15T05:08:57.642Z,10.00
2018-05-15T05:09:31.523Z,10.43
2018-05-15T05:10:05.496Z,10.07
2018-05-15T05:10:39.375Z,10.65
2018-05-15T05:11:13.258Z,11.00
2018-05-15T05:11:47.200Z,10.75
2018-05-15T05:12:21.102Z,11.32
2018-05-15T05:12:54.985Z,10.05
2018-05-15T05:13:28.884Z,9.25
2018-05-15T05:14:03.000Z,10.32
2018-05-15T05:14:36.932Z,12.00
2018-05-15T05:15:10.814Z,10.73
2018-05-15T05:15:44.707Z,10.65
2018-05-15T05:16:18.588Z,10.60
2018-05-15T05:16:52.492Z,11.00
2018-05-15T05:17:26.395Z,10.50
2018-05-15T05:18:00.301Z,10.15
2018-05-15T05:18:34.309Z,9.88
2018-05-15T05:19:08.295Z,10.40
2018-05-15T05:19:42.173Z,10.25
2018-05-15T05:20:16.052Z,11.25
2018-05-15T05:20:49.933Z,10.63
2018-05-15T05:21:23.884Z,10.98
2018-05-15T05:21:57.842Z,10.95
2018-05-15T05:22:31.741Z,11.02
2018-05-15T05:23:05.745Z,10.98
2018-05-15T05:23:39.699Z,11.10
2018-05-15T05:24:13.649Z,11.05
2018-05-15T05:24:47.585Z,11.10
2018-05-15T05:25:21.617Z,10.70
2018-05-15T05:25:55.569Z,10.18
2018-05-15T05:26:29.458Z,11.00
2018-05-15T05:27:03.398Z,9.98
2018-05-15T05:27:37.304Z,10.57
2018-05-15T05:28:11.205Z,10.63
2018-05-15T05:28:45.145Z,10.80
2018-05-15T05:29:19.142Z,11.95
2018-05-15T05:29:53.004Z,11.73
2018-05-15T05:30:26.947Z,11.25
2018-05-15T05:31:00.806Z,10.25
2018-05-15T05:31:34.744Z,10.18
2018-05-15T05:32:08.615Z,10.68
2018-05-15T05:32:42.709Z,10.20
2018-05-15T05:33:16.663Z,10.90
2018-05-15T05:33:50.765Z,11.63
2018-05-15T05:34:24.796Z,10.73
2018-05-15T05:34:58.723Z,11.15
2018-05-15T05:35:32.625Z,11.07
2018-05-15T05:36:06.801Z,10.32
2018-05-15T05:36:40.800Z,11.93
2018-05-15T05:37:14.939Z,9.95
2018-05-15T05:37:49.036Z,12.27
2018-05-15T05:38:23.584Z,10.98
2018-05-15T05:38:57.517Z,10.45
2018-05-15T05:39:31.466Z,10.82
2018-05-15T05:40:05.478Z,12.13
2018-05-15T05:40:39.316Z,10.25
2018-05-15T05:41:13.207Z,12.20
2018-05-15T05:41:47.195Z,10.73
2018-05-15T05:42:21.127Z,10.88
2018-05-15T05:42:55.198Z,11.82
2018-05-15T05:43:29.111Z,10.75
2018-05-15T05:44:03.006Z,11.48
2018-05-15T05:44:38.520Z,11.20
2018-05-15T05:45:15.645Z,11.35
2018-05-15T05:45:51.262Z,11.38
2018-05-15T05:46:28.448Z,11.00
2018-05-15T05:47:08.945Z,10.77
2018-05-15T05:47:44.418Z,10.85
2018-05-15T05:48:18.418Z,10.90
2018-05-15T05:48:56.401Z,10.48
2018-05-15T05:49:32.690Z,10.82
2018-05-15T05:50:06.822Z,11.63
2018-05-15T05:50:40.874Z,10.45
2018-05-15T05:51:14.836Z,10.90
2018-05-15T05:51:48.853Z,11.60
2018-05-15T05:52:22.764Z,11.73
2018-05-15T05:52:56.753Z,10.65
2018-05-15T05:53:30.703Z,10.35
2018-05-15T05:54:04.636Z,10.40
2018-05-15T05:54:38.519Z,11.00
2018-05-15T05:55:12.433Z,10.05
2018-05-15T05:55:46.317Z,11.00
2018-05-15T05:56:20.204Z,10.95
2018-05-15T05:56:54.101Z,10.95
2018-05-15T05:57:28.054Z,10.43
2018-05-15T05:58:01.975Z,10.48
2018-05-15T05:58:36.082Z,10.52
2018-05-15T05:59:09.951Z,10.88
2018-05-15T05:59:43.819Z,10.38
2018-05-15T06:00:17.934Z,10.40
2018-05-15T06:00:51.842Z,10.10
2018-05-15T06:01:25.809Z,12.13
2018-05-15T06:01:59.772Z,11.40
2018-05-15T06:02:33.663Z,11.63
2018-05-15T06:03:07.669Z,11.07
2018-05-15T06:03:41.621Z,10.45
2018-05-15T06:04:15.552Z,11.50
2018-05-15T06:04:49.437Z,10.77
2018-05-15T06:05:23.338Z,10.45
2018-05-15T06:05:57.271Z,10.50
2018-05-15T06:06:31.284Z,10.70
2018-05-15T06:07:05.178Z,11.80
2018-05-15T06:07:39.128Z,11.90
2018-05-15T06:08:13.102Z,11.10
2018-05-15T06:08:47.040Z,10.93
2018-05-15T06:09:21.027Z,11.15
2018-05-15T06:09:54.916Z,9.90
2018-05-15T06:10:28.818Z,11.32
2018-05-15T06:11:02.719Z,11.27
2018-05-15T06:11:36.587Z,10.25
2018-05-15T06:12:10.551Z,10.15
2018-05-15T06:12:44.420Z,11.27
2018-05-15T06:13:18.418Z,10.07
2018-05-15T06:13:52.356Z,10.38
2018-05-15T06:14:26.485Z,10.60
2018-05-15T06:15:00.274Z,10.27
2018-05-15T06:15:34.738Z,10.98
2018-05-15T06:16:08.846Z,10.30
2018-05-15T06:16:42.790Z,10.30
2018-05-15T06:17:16.662Z,10.88
2018-05-15T06:17:50.556Z,10.50
2018-05-15T06:18:24.464Z,10.75
2018-05-15T06:18:58.331Z,10.07
2018-05-15T06:19:32.249Z,9.82
2018-05-15T06:20:06.303Z,10.60
2018-05-15T06:20:40.401Z,11.63
2018-05-15T06:21:14.670Z,11.38
2018-05-15T06:21:48.544Z,11.12
2018-05-15T06:22:22.439Z,10.27
2018-05-15T06:22:56.388Z,10.73
2018-05-15T06:23:30.260Z,10.60
2018-05-15T06:24:04.809Z,11.30
2018-05-15T06:24:38.761Z,11.20
2018-05-15T06:25:12.614Z,11.38
2018-05-15T06:25:46.497Z,10.27
2018-05-15T06:26:20.431Z,10.02
2018-05-15T06:26:54.539Z,10.27
2018-05-15T06:27:28.466Z,11.00
2018-05-15T06:28:02.301Z,10.77
2018-05-15T06:28:36.286Z,10.57
2018-05-15T06:29:10.204Z,10.90
2018-05-15T06:29:44.205Z,10.00
2018-05-15T06:30:18.238Z,10.32
2018-05-15T06:30:52.226Z,10.23
2018-05-15T06:31:26.263Z,10.90
2018-05-15T06:32:00.164Z,10.10
2018-05-15T06:32:34.095Z,11.25
2018-05-15T06:33:08.114Z,10.88
2018-05-15T06:33:42.089Z,11.23
2018-05-15T06:34:15.964Z,10.82
2018-05-15T06:34:49.900Z,10.27
2018-05-15T06:35:23.822Z,10.82
2018-05-15T06:35:57.767Z,11.27
2018-05-15T06:36:32.598Z,10.88
2018-05-15T06:37:06.573Z,9.50
2018-05-15T06:37:40.582Z,10.02
2018-05-15T06:38:14.499Z,10.57
2018-05-15T06:38:48.396Z,10.25
2018-05-15T06:39:22.495Z,11.15
2018-05-15T06:39:56.594Z,9.93
2018-05-15T06:40:30.606Z,9.95
2018-05-15T06:41:04.642Z,10.27
2018-05-15T06:41:38.691Z,10.82
2018-05-15T06:42:12.650Z,11.15
2018-05-15T06:42:46.587Z,11.30
2018-05-15T06:43:20.468Z,10.43
2018-05-15T06:43:54.688Z,11.30
2018-05-15T06:44:28.600Z,10.90
2018-05-15T06:45:02.536Z,9.93
2018-05-15T06:45:36.490Z,10.43
2018-05-15T06:46:10.412Z,11.35
2018-05-15T06:46:44.328Z,10.05
2018-05-15T06:47:18.258Z,11.95
2018-05-15T06:47:52.198Z,12.37
2018-05-15T06:48:26.215Z,12.52
2018-05-15T06:49:00.229Z,11.07
2018-05-15T06:49:34.650Z,10.80
2018-05-15T06:50:08.550Z,10.45
2018-05-15T06:50:42.611Z,10.98
2018-05-15T06:51:16.521Z,10.80
2018-05-15T06:51:51.189Z,10.38
2018-05-15T06:52:25.216Z,9.68
2018-05-15T06:53:02.255Z,11.15
2018-05-15T06:53:37.367Z,10.80
2018-05-15T06:54:11.349Z,10.48
2018-05-15T06:54:45.270Z,9.88
2018-05-15T06:55:19.197Z,9.90
2018-05-15T06:55:53.466Z,10.05
2018-05-15T06:56:27.349Z,9.90
2018-05-15T06:57:02.727Z,10.30
2018-05-15T06:57:36.664Z,10.45
2018-05-15T06:58:11.409Z,10.90
2018-05-15T06:58:45.310Z,9.63
2018-05-15T06:59:19.213Z,9.88
2018-05-15T06:59:53.107Z,9.68
2018-05-15T07:00:30.899Z,9.93
2018-05-15T07:01:05.136Z,11.77
2018-05-15T07:01:39.948Z,10.00
2018-05-15T07:02:14.615Z,11.82
2018-05-15T07:02:49.159Z,10.00
2018-05-15T07:03:23.282Z,12.10
2018-05-15T07:03:57.398Z,9.48
2018-05-15T07:04:31.291Z,9.48
2018-05-15T07:05:05.238Z,10.50
2018-05-15T07:05:39.466Z,9.10
2018-05-15T07:06:13.677Z,11.90
2018-05-15T07:06:49.968Z,10.25
2018-05-15T07:07:24.456Z,9.95
2018-05-15T07:07:59.416Z,10.82
2018-05-15T07:08:34.276Z,11.00
2018-05-15T07:09:09.065Z,10.45
2018-05-15T07:09:43.309Z,11.65
2018-05-15T07:10:18.242Z,11.12
2018-05-15T07:10:52.629Z,9.23
2018-05-15T07:11:27.519Z,9.25
2018-05-15T07:12:01.654Z,9.07
2018-05-15T07:12:35.999Z,8.65
2018-05-15T07:13:09.969Z,9.13
2018-05-15T07:13:44.201Z,9.32
2018-05-15T07:14:18.226Z,9.27
2018-05-15T07:14:52.116Z,9.75
2018-05-15T07:15:26.108Z,9.20
2018-05-15T07:16:00.099Z,9.40
2018-05-15T07:16:34.085Z,11.20
2018-05-15T07:17:07.995Z,10.48
2018-05-15T07:17:41.936Z,9.77
2018-05-15T07:18:15.932Z,9.43
2018-05-15T07:18:49.820Z,9.68
2018-05-15T07:19:24.006Z,9.40
2018-05-15T07:19:58.010Z,9.75
2018-05-15T07:20:31.891Z,9.50
2018-05-15T07:21:05.756Z,10.23
2018-05-15T07:21:39.916Z,9.57
2018-05-15T07:22:13.830Z,9.65
2018-05-15T07:22:47.693Z,9.40
2018-05-15T07:23:21.624Z,10.30
2018-05-15T07:23:55.626Z,9.98
2018-05-15T07:24:29.709Z,10.27
2018-05-15T07:25:04.287Z,9.60
2018-05-15T07:25:39.316Z,9.07
2018-05-15T07:26:13.202Z,9.55
2018-05-15T07:26:47.636Z,9.90
2018-05-15T07:27:21.616Z,9.15